Time;durP1;ratioP1;P1;durP2;ratioP2;P2;SDS_P1;SDS_P2;PMS_P1;PMS_P2;Temp;Humidity;BMP_temperature;BMP_pressure;BME280_temperature;BME280_humidity;BME280_pressure;Samples;Min_cycle;Max_cycle;Signal;HPM_P1;HPM_P2
2021/08/13 00:01:17;;;;;;;26.27;18.92;;;;;;;;;;5036608;28;20075;-83
2021/08/13 00:03:43;;;;;;;23.95;19.90;;;;;;;;;;5054343;28;20096;-83
2021/08/13 00:06:08;;;;;;;24.45;19.45;;;;;;;;;;5053883;28;20033;-83
2021/08/13 00:08:34;;;;;;;24.52;19.42;;;;;;;;;;5057408;28;20107;-82
2021/08/13 00:10:59;;;;;;;24.08;19.38;;;;;;;;;;5059197;28;20041;-81
2021/08/13 00:13:25;;;;;;;25.38;19.02;;;;;;;;;;5058361;28;20098;-81
2021/08/13 00:15:50;;;;;;;23.65;19.00;;;;;;;;;;5058580;28;20049;-82
2021/08/13 00:18:16;;;;;;;24.83;20.67;;;;;;;;;;5058693;28;20505;-82
2021/08/13 00:20:41;;;;;;;27.33;20.88;;;;;;;;;;5058111;28;20107;-81
2021/08/13 00:23:07;;;;;;;26.85;20.50;;;;;;;;;;5058494;28;20020;-83
2021/08/13 00:25:32;;;;;;;26.58;20.40;;;;;;;;;;5058455;28;20029;-83
2021/08/13 00:27:58;;;;;;;26.38;20.00;;;;;;;;;;5058453;28;20601;-83
2021/08/13 00:30:23;;;;;;;26.83;20.00;;;;;;;;;;5057858;28;20344;-82
2021/08/13 00:32:49;;;;;;;25.70;20.98;;;;;;;;;;5057604;28;20027;-82
2021/08/13 00:35:14;;;;;;;28.63;20.60;;;;;;;;;;5058212;28;20115;-81
2021/08/13 00:37:41;;;;;;;26.83;21.05;;;;;;;;;;5039082;28;20063;-80
2021/08/13 00:40:08;;;;;;;25.48;19.05;;;;;;;;;;5056218;28;20469;-83
2021/08/13 00:42:33;;;;;;;24.52;19.63;;;;;;;;;;5056735;28;20021;-82
2021/08/13 00:44:59;;;;;;;27.10;19.23;;;;;;;;;;5058210;28;20493;-83
2021/08/13 00:47:24;;;;;;;31.45;20.88;;;;;;;;;;5058097;28;20470;-82
2021/08/13 00:49:50;;;;;;;26.42;19.80;;;;;;;;;;5058674;28;20025;-82
2021/08/13 00:52:16;;;;;;;24.15;18.45;;;;;;;;;;5057823;28;20033;-82
2021/08/13 00:54:42;;;;;;;23.98;19.55;;;;;;;;;;5058651;28;20071;-83
2021/08/13 00:57:07;;;;;;;28.83;19.88;;;;;;;;;;5057893;28;20029;-82
2021/08/13 00:59:33;;;;;;;30.90;20.45;;;;;;;;;;5058002;28;20039;-82
2021/08/13 01:01:59;;;;;;;31.00;19.92;;;;;;;;;;5057216;28;20025;-82
2021/08/13 01:04:24;;;;;;;23.75;19.88;;;;;;;;;;5057826;28;20025;-82
2021/08/13 01:06:50;;;;;;;26.05;19.67;;;;;;;;;;5057340;28;20206;-82
2021/08/13 01:09:16;;;;;;;24.75;19.92;;;;;;;;;;5040208;28;20052;-82
2021/08/13 01:11:44;;;;;;;24.85;19.40;;;;;;;;;;5024046;28;20033;-82
2021/08/13 01:14:28;;;;;;;25.88;20.10;;;;;;;;;;5058181;28;20104;-82
2021/08/13 01:16:55;;;;;;;25.05;20.30;;;;;;;;;;5058240;28;20514;-83
2021/08/13 01:19:26;;;;;;;31.30;20.17;;;;;;;;;;5057250;28;20028;-82
2021/08/13 01:22:02;;;;;;;25.50;19.75;;;;;;;;;;5040056;28;20029;-84
2021/08/13 01:24:29;;;;;;;29.23;19.38;;;;;;;;;;5057309;28;20072;-81
2021/08/13 01:26:59;;;;;;;29.15;20.60;;;;;;;;;;5038601;28;20032;-82
2021/08/13 01:29:24;;;;;;;26.00;18.80;;;;;;;;;;5057667;28;20032;-81
2021/08/13 01:32:10;;;;;;;23.52;19.20;;;;;;;;;;5057139;28;20075;-82
2021/08/13 01:34:39;;;;;;;33.00;19.80;;;;;;;;;;5057295;28;20046;-81
2021/08/13 01:37:04;;;;;;;25.95;19.92;;;;;;;;;;5057233;28;20082;-82
2021/08/13 01:39:30;;;;;;;29.15;18.50;;;;;;;;;;5039082;28;20498;-82
2021/08/13 01:41:56;;;;;;;28.67;19.05;;;;;;;;;;5057571;28;20100;-82
2021/08/13 01:44:22;;;;;;;23.05;17.85;;;;;;;;;;5044240;28;20451;-82
2021/08/13 01:46:48;;;;;;;26.35;18.55;;;;;;;;;;5053676;28;20027;-82
2021/08/13 01:49:14;;;;;;;26.58;19.17;;;;;;;;;;5053956;28;20147;-82
2021/08/13 01:51:40;;;;;;;24.20;17.58;;;;;;;;;;5053764;28;20070;-82
2021/08/13 01:54:06;;;;;;;25.23;16.80;;;;;;;;;;5053685;28;20037;-82
2021/08/13 01:56:32;;;;;;;21.95;18.10;;;;;;;;;;5035489;28;20044;-82
2021/08/13 01:58:58;;;;;;;22.65;16.73;;;;;;;;;;5053752;28;20033;-81
2021/08/13 02:01:23;;;;;;;24.20;16.15;;;;;;;;;;5053327;28;20033;-82
2021/08/13 02:03:49;;;;;;;22.08;15.80;;;;;;;;;;5053709;28;20028;-82
2021/08/13 02:06:15;;;;;;;22.92;14.80;;;;;;;;;;5035192;28;20395;-81
2021/08/13 02:08:42;;;;;;;20.05;13.65;;;;;;;;;;5053304;28;20061;-81
2021/08/13 02:11:08;;;;;;;23.80;14.50;;;;;;;;;;5053247;28;20491;-83
2021/08/13 02:13:34;;;;;;;19.13;14.70;;;;;;;;;;5052979;28;20054;-81
2021/08/13 02:16:06;;;;;;;17.10;12.95;;;;;;;;;;5052899;28;20087;-81
2021/08/13 02:18:34;;;;;;;20.08;13.35;;;;;;;;;;5052834;28;20112;-82
2021/08/13 02:21:02;;;;;;;19.55;14.20;;;;;;;;;;5053216;28;20025;-82
2021/08/13 02:23:28;;;;;;;13.23;10.93;;;;;;;;;;5052864;28;20025;-82
2021/08/13 02:25:55;;;;;;;14.95;11.00;;;;;;;;;;5053354;28;20570;-82
2021/08/13 02:28:21;;;;;;;15.45;11.63;;;;;;;;;;5053339;28;20029;-81
2021/08/13 02:30:46;;;;;;;14.48;10.82;;;;;;;;;;5052372;28;20343;-82
2021/08/13 02:33:12;;;;;;;16.92;11.57;;;;;;;;;;5053081;28;20037;-82
2021/08/13 02:35:37;;;;;;;15.27;10.95;;;;;;;;;;5053119;28;20041;-82
2021/08/13 02:38:11;;;;;;;15.60;11.27;;;;;;;;;;5053010;28;20028;-82
2021/08/13 02:40:38;;;;;;;17.30;11.55;;;;;;;;;;5055978;28;20087;-82
2021/08/13 02:43:04;;;;;;;21.08;12.15;;;;;;;;;;5055917;28;20422;-81
2021/08/13 02:45:32;;;;;;;14.38;11.75;;;;;;;;;;5054746;28;20029;-82
2021/08/13 02:47:59;;;;;;;16.65;11.75;;;;;;;;;;5055008;28;20029;-81
2021/08/13 02:50:26;;;;;;;17.02;12.18;;;;;;;;;;5054440;28;20075;-83
2021/08/13 02:53:00;;;;;;;15.55;11.85;;;;;;;;;;5053814;28;20052;-81
2021/08/13 02:55:33;;;;;;;17.58;11.93;;;;;;;;;;5053170;28;20037;-82
2021/08/13 02:57:59;;;;;;;14.10;11.32;;;;;;;;;;5036506;28;20025;-82
2021/08/13 03:00:25;;;;;;;13.75;10.23;;;;;;;;;;5054828;28;20163;-82
2021/08/13 03:02:51;;;;;;;16.50;10.73;;;;;;;;;;5054980;28;20075;-82
2021/08/13 03:05:19;;;;;;;15.55;12.00;;;;;;;;;;5055858;28;20032;-81
2021/08/13 03:07:44;;;;;;;14.43;10.82;;;;;;;;;;5055012;28;20074;-83
2021/08/13 03:10:10;;;;;;;14.48;10.63;;;;;;;;;;5055013;28;20139;-81
2021/08/13 03:12:37;;;;;;;15.52;10.80;;;;;;;;;;5036374;28;20020;-82
2021/08/13 03:15:02;;;;;;;13.90;9.73;;;;;;;;;;5055156;28;20043;-81
2021/08/13 03:17:28;;;;;;;14.20;10.20;;;;;;;;;;5054250;28;20020;-80
2021/08/13 03:19:54;;;;;;;14.00;10.52;;;;;;;;;;5054233;28;20029;-82
2021/08/13 03:22:20;;;;;;;14.13;10.10;;;;;;;;;;5053381;28;20147;-82
2021/08/13 03:24:46;;;;;;;20.23;11.27;;;;;;;;;;5053827;28;20438;-80
2021/08/13 03:27:11;;;;;;;12.18;10.07;;;;;;;;;;5053931;28;20025;-81
2021/08/13 03:29:37;;;;;;;16.38;10.98;;;;;;;;;;5054237;28;20021;-81
2021/08/13 03:32:04;;;;;;;13.77;10.75;;;;;;;;;;5053927;28;20059;-81
2021/08/13 03:34:30;;;;;;;13.85;10.13;;;;;;;;;;5053538;28;20357;-83
2021/08/13 03:36:57;;;;;;;12.30;9.68;;;;;;;;;;5054045;28;20083;-80
2021/08/13 03:39:23;;;;;;;16.23;9.20;;;;;;;;;;5054054;28;20533;-80
2021/08/13 03:41:49;;;;;;;13.40;9.30;;;;;;;;;;5055506;28;20040;-81
2021/08/13 03:44:15;;;;;;;11.77;8.63;;;;;;;;;;5058766;28;20044;-81
2021/08/13 03:46:40;;;;;;;13.85;9.07;;;;;;;;;;5058498;28;20025;-80
2021/08/13 03:49:07;;;;;;;11.95;8.57;;;;;;;;;;5058804;28;20487;-81
2021/08/13 03:51:33;;;;;;;8.70;7.40;;;;;;;;;;5058766;28;20139;-81
2021/08/13 03:53:58;;;;;;;14.65;8.63;;;;;;;;;;5059043;28;20032;-82
2021/08/13 03:56:24;;;;;;;14.18;8.20;;;;;;;;;;5058960;28;20092;-82
2021/08/13 03:58:49;;;;;;;10.48;7.78;;;;;;;;;;5058101;28;20032;-82
2021/08/13 04:01:15;;;;;;;15.55;8.10;;;;;;;;;;5058707;28;20082;-82
2021/08/13 04:03:40;;;;;;;13.93;7.63;;;;;;;;;;5057826;28;20021;-81
2021/08/13 04:06:07;;;;;;;8.18;6.93;;;;;;;;;;5057596;28;20457;-81
2021/08/13 04:08:32;;;;;;;16.00;7.38;;;;;;;;;;5057062;28;20057;-82
2021/08/13 04:10:58;;;;;;;13.20;7.45;;;;;;;;;;5039642;28;20543;-81
2021/08/13 04:13:23;;;;;;;10.82;7.97;;;;;;;;;;5057021;28;20483;-81
2021/08/13 04:15:49;;;;;;;9.75;7.13;;;;;;;;;;5057169;28;20037;-82
2021/08/13 04:18:14;;;;;;;13.95;7.97;;;;;;;;;;5057712;28;20033;-83
2021/08/13 04:20:40;;;;;;;12.98;7.10;;;;;;;;;;5039050;28;20510;-80
2021/08/13 04:23:06;;;;;;;10.73;7.38;;;;;;;;;;5022057;28;20036;-82
2021/08/13 04:25:31;;;;;;;9.82;6.55;;;;;;;;;;5056717;28;20032;-81
2021/08/13 04:27:57;;;;;;;9.45;6.88;;;;;;;;;;5057185;28;20167;-81
2021/08/13 04:30:23;;;;;;;15.00;7.13;;;;;;;;;;5056874;28;20086;-82
2021/08/13 04:32:48;;;;;;;13.52;6.43;;;;;;;;;;5056979;28;20032;-81
2021/08/13 04:35:14;;;;;;;12.95;6.82;;;;;;;;;;5056944;28;20044;-82
2021/08/13 04:37:39;;;;;;;9.30;5.90;;;;;;;;;;5057003;28;20529;-82
2021/08/13 04:40:06;;;;;;;10.50;5.75;;;;;;;;;;5057322;28;20518;-82
2021/08/13 04:42:33;;;;;;;8.30;5.47;;;;;;;;;;5057990;28;20024;-81
2021/08/13 04:44:59;;;;;;;20.13;9.88;;;;;;;;;;5027755;28;20029;-81
2021/08/13 04:47:25;;;;;;;11.20;5.78;;;;;;;;;;5065363;28;20025;-81
2021/08/13 04:49:50;;;;;;;9.18;5.35;;;;;;;;;;5062442;28;20108;-81
2021/08/13 04:52:18;;;;;;;14.98;5.18;;;;;;;;;;5064455;28;20483;-81
2021/08/13 04:54:46;;;;;;;7.15;4.53;;;;;;;;;;5058927;28;20108;-82
2021/08/13 04:57:12;;;;;;;7.95;4.25;;;;;;;;;;5057460;28;20047;-82
2021/08/13 04:59:37;;;;;;;25.25;5.10;;;;;;;;;;5057092;28;20017;-83
2021/08/13 05:02:03;;;;;;;6.25;4.05;;;;;;;;;;5056537;28;20025;-82
2021/08/13 05:04:28;;;;;;;23.30;5.13;;;;;;;;;;5056424;28;20025;-82
2021/08/13 05:06:54;;;;;;;13.65;4.25;;;;;;;;;;5056109;28;20041;-82
2021/08/13 05:09:19;;;;;;;15.20;3.85;;;;;;;;;;5056721;28;20166;-82
2021/08/13 05:11:45;;;;;;;7.50;3.78;;;;;;;;;;5056418;28;20029;-82
2021/08/13 05:14:10;;;;;;;11.20;3.25;;;;;;;;;;5038903;28;20031;-82
2021/08/13 05:16:36;;;;;;;12.65;3.20;;;;;;;;;;5055685;28;20392;-81
2021/08/13 05:19:01;;;;;;;14.25;3.40;;;;;;;;;;5037740;28;20028;-81
2021/08/13 05:21:27;;;;;;;6.95;2.60;;;;;;;;;;5055860;28;20032;-81
2021/08/13 05:23:52;;;;;;;4.60;2.67;;;;;;;;;;5054733;28;20024;-81
2021/08/13 05:26:18;;;;;;;7.85;2.70;;;;;;;;;;5054827;28;20056;-81
2021/08/13 05:28:44;;;;;;;13.35;2.88;;;;;;;;;;5054466;28;20029;-80
2021/08/13 05:31:10;;;;;;;15.38;3.28;;;;;;;;;;5053969;28;20036;-80
2021/08/13 05:33:35;;;;;;;5.47;2.30;;;;;;;;;;5054428;28;20140;-81
2021/08/13 05:36:01;;;;;;;10.27;2.25;;;;;;;;;;5053578;28;20072;-79
2021/08/13 05:38:26;;;;;;;11.48;2.80;;;;;;;;;;5054600;28;20033;-79
2021/08/13 05:40:52;;;;;;;8.27;3.15;;;;;;;;;;5054307;28;20114;-80
2021/08/13 05:43:17;;;;;;;7.82;2.95;;;;;;;;;;5053708;28;20035;-81
2021/08/13 05:45:43;;;;;;;12.32;2.90;;;;;;;;;;5053577;28;20445;-81
2021/08/13 05:48:09;;;;;;;20.40;3.28;;;;;;;;;;5053644;28;20060;-80
2021/08/13 05:50:34;;;;;;;32.13;4.38;;;;;;;;;;5054162;28;20037;-81
2021/08/13 05:53:00;;;;;;;8.23;2.20;;;;;;;;;;5053791;28;20029;-80
2021/08/13 05:55:25;;;;;;;11.38;2.13;;;;;;;;;;5053389;28;20086;-81
2021/08/13 05:57:51;;;;;;;8.35;2.20;;;;;;;;;;5056321;28;20033;-80
2021/08/13 06:00:17;;;;;;;44.42;4.55;;;;;;;;;;5055967;28;20028;-81
2021/08/13 06:02:56;;;;;;;5.55;2.63;;;;;;;;;;5037382;28;20115;-80
2021/08/13 06:05:21;;;;;;;15.43;3.17;;;;;;;;;;5035730;28;20410;-80
2021/08/13 06:07:47;;;;;;;15.18;2.20;;;;;;;;;;5053509;28;20141;-81
2021/08/13 06:10:12;;;;;;;3.83;2.08;;;;;;;;;;5053188;28;20509;-81
2021/08/13 06:12:38;;;;;;;6.45;2.00;;;;;;;;;;5053121;28;20162;-81
2021/08/13 06:15:04;;;;;;;3.22;1.85;;;;;;;;;;5052785;28;20082;-81
2021/08/13 06:17:29;;;;;;;6.90;2.10;;;;;;;;;;5053767;28;20479;-79
2021/08/13 06:19:55;;;;;;;16.05;2.45;;;;;;;;;;5053225;28;20053;-80
2021/08/13 06:22:21;;;;;;;10.95;2.28;;;;;;;;;;5053339;28;20029;-80
2021/08/13 06:24:46;;;;;;;5.57;1.95;;;;;;;;;;5053433;28;20369;-80
2021/08/13 06:27:12;;;;;;;19.02;2.63;;;;;;;;;;5052952;28;20383;-80
2021/08/13 06:29:38;;;;;;;3.47;1.60;;;;;;;;;;5053040;28;20021;-81
2021/08/13 06:32:03;;;;;;;7.93;1.60;;;;;;;;;;5053270;28;20121;-81
2021/08/13 06:34:29;;;;;;;6.85;1.65;;;;;;;;;;5052702;28;20035;-81
2021/08/13 06:36:54;;;;;;;6.57;1.98;;;;;;;;;;5052694;28;20039;-81
2021/08/13 06:39:20;;;;;;;8.55;1.77;;;;;;;;;;5053367;28;20056;-80
2021/08/13 06:41:46;;;;;;;5.60;1.88;;;;;;;;;;5035103;28;20062;-82
2021/08/13 06:44:14;;;;;;;17.52;2.40;;;;;;;;;;5052934;28;20407;-83
2021/08/13 06:46:40;;;;;;;4.60;1.80;;;;;;;;;;5053015;28;20051;-81
2021/08/13 06:49:05;;;;;;;8.77;1.90;;;;;;;;;;5052203;28;20025;-81
2021/08/13 06:51:31;;;;;;;7.03;1.80;;;;;;;;;;5053908;28;20383;-82
2021/08/13 06:53:56;;;;;;;14.23;2.25;;;;;;;;;;5053185;28;20427;-82
2021/08/13 06:56:22;;;;;;;4.25;1.55;;;;;;;;;;5053931;28;20041;-82
2021/08/13 06:58:47;;;;;;;10.50;1.90;;;;;;;;;;5053031;28;20108;-84
2021/08/13 07:01:13;;;;;;;6.50;1.60;;;;;;;;;;5053038;28;20039;-81
2021/08/13 07:03:38;;;;;;;5.80;1.58;;;;;;;;;;5053481;28;20053;-83
2021/08/13 07:06:04;;;;;;;8.52;2.00;;;;;;;;;;5054341;28;20039;-84
2021/08/13 07:08:29;;;;;;;6.40;1.92;;;;;;;;;;5054131;28;20143;-85
2021/08/13 07:10:55;;;;;;;3.95;1.70;;;;;;;;;;5053570;28;20080;-82
2021/08/13 07:13:20;;;;;;;9.52;2.00;;;;;;;;;;5054939;28;20036;-80
2021/08/13 07:15:46;;;;;;;7.53;2.05;;;;;;;;;;5036808;28;20048;-80
2021/08/13 07:18:11;;;;;;;6.97;2.17;;;;;;;;;;5053568;28;20029;-84
2021/08/13 07:20:37;;;;;;;7.47;1.58;;;;;;;;;;5054507;28;20025;-83
2021/08/13 07:23:02;;;;;;;7.07;1.90;;;;;;;;;;5055370;28;20032;-84
2021/08/13 07:25:28;;;;;;;11.68;2.67;;;;;;;;;;5053170;28;20032;-83
2021/08/13 07:27:54;;;;;;;4.18;1.70;;;;;;;;;;5054445;28;20033;-84
2021/08/13 07:30:20;;;;;;;29.75;6.60;;;;;;;;;;5054896;28;20530;-83
2021/08/13 07:32:45;;;;;;;30.10;4.15;;;;;;;;;;5053737;28;20028;-84
2021/08/13 07:35:11;;;;;;;17.83;3.72;;;;;;;;;;5053126;28;20040;-83
2021/08/13 07:37:38;;;;;;;8.80;2.25;;;;;;;;;;5052841;28;20053;-84
2021/08/13 07:40:04;;;;;;;16.77;2.58;;;;;;;;;;5053246;28;20063;-83
2021/08/13 07:42:30;;;;;;;7.72;1.83;;;;;;;;;;5053786;28;20061;-85
2021/08/13 07:44:55;;;;;;;6.35;2.00;;;;;;;;;;5054902;28;20116;-84
2021/08/13 07:47:21;;;;;;;12.02;2.40;;;;;;;;;;5054026;28;20409;-84
2021/08/13 07:49:47;;;;;;;7.53;2.10;;;;;;;;;;5054577;28;20033;-81
2021/08/13 07:52:12;;;;;;;5.47;1.80;;;;;;;;;;5053907;28;20131;-83
2021/08/13 07:54:38;;;;;;;4.57;1.88;;;;;;;;;;5053425;28;20021;-83
2021/08/13 07:57:05;;;;;;;4.70;2.08;;;;;;;;;;5053045;28;20120;-84
2021/08/13 07:59:33;;;;;;;5.30;2.10;;;;;;;;;;5052725;28;20078;-82
2021/08/13 08:01:58;;;;;;;8.18;2.10;;;;;;;;;;5053182;28;20025;-84
2021/08/13 08:04:24;;;;;;;7.47;2.40;;;;;;;;;;5053761;28;20032;-86
2021/08/13 08:06:49;;;;;;;26.67;5.07;;;;;;;;;;5054627;28;20448;-86
2021/08/13 08:09:15;;;;;;;12.13;2.80;;;;;;;;;;5055288;28;20128;-86
2021/08/13 08:11:41;;;;;;;11.23;3.05;;;;;;;;;;5036162;28;20398;-87
2021/08/13 08:14:08;;;;;;;4.18;1.58;;;;;;;;;;5035323;28;20071;-86
2021/08/13 08:16:34;;;;;;;6.45;1.85;;;;;;;;;;5053646;28;20040;-84
2021/08/13 08:18:59;;;;;;;10.52;2.00;;;;;;;;;;5035742;28;20029;-85
2021/08/13 08:21:25;;;;;;;5.85;1.80;;;;;;;;;;5053926;28;20419;-86
2021/08/13 08:23:50;;;;;;;2.20;1.60;;;;;;;;;;5035468;28;20071;-86
2021/08/13 08:26:16;;;;;;;14.60;2.38;;;;;;;;;;5052315;28;20033;-86
2021/08/13 08:28:45;;;;;;;12.43;2.75;;;;;;;;;;5055011;28;20020;-83
2021/08/13 08:31:11;;;;;;;15.38;3.58;;;;;;;;;;5039356;28;20032;-85
2021/08/13 08:33:36;;;;;;;3.17;1.75;;;;;;;;;;5056925;28;20029;-85
2021/08/13 08:36:02;;;;;;;3.38;1.67;;;;;;;;;;5061861;28;20041;-85
2021/08/13 08:38:27;;;;;;;3.45;1.52;;;;;;;;;;5068947;28;20021;-83
2021/08/13 08:40:53;;;;;;;4.45;1.60;;;;;;;;;;5066850;28;20029;-85
2021/08/13 08:43:18;;;;;;;11.75;2.25;;;;;;;;;;5057257;28;20519;-82
2021/08/13 08:45:44;;;;;;;4.75;1.95;;;;;;;;;;5055396;28;20492;-79
2021/08/13 08:48:10;;;;;;;8.13;2.13;;;;;;;;;;5054636;28;20029;-78
2021/08/13 08:50:37;;;;;;;8.48;1.70;;;;;;;;;;5054600;28;20051;-79
2021/08/13 08:53:23;;;;;;;8.60;2.08;;;;;;;;;;5054218;28;20067;-79
2021/08/13 08:55:49;;;;;;;;;;;;;;;;;;5054283;28;20041;-80
2021/08/13 08:58:15;;;;;;;4.80;1.90;;;;;;;;;;5054092;28;19915;-79
2021/08/13 09:00:40;;;;;;;11.98;1.80;;;;;;;;;;5053860;28;20582;-80
2021/08/13 09:03:06;;;;;;;5.75;1.65;;;;;;;;;;5054166;28;20104;-81
2021/08/13 09:05:32;;;;;;;23.98;3.05;;;;;;;;;;5053859;28;20033;-80
2021/08/13 09:07:57;;;;;;;4.60;1.63;;;;;;;;;;5053448;28;20092;-80
2021/08/13 09:10:23;;;;;;;4.22;1.48;;;;;;;;;;5053636;28;20025;-81
2021/08/13 09:12:51;;;;;;;13.48;2.13;;;;;;;;;;5053678;28;20072;-79
2021/08/13 09:15:29;;;;;;;3.15;1.60;;;;;;;;;;5053193;28;20033;-78
2021/08/13 09:18:11;;;;;;;8.60;1.70;;;;;;;;;;5052975;28;20087;-80
2021/08/13 09:20:42;;;;;;;11.18;1.75;;;;;;;;;;5053668;28;20036;-80
2021/08/13 09:23:08;;;;;;;10.73;1.80;;;;;;;;;;5053783;28;20067;-80
2021/08/13 09:25:34;;;;;;;5.22;1.38;;;;;;;;;;5054123;28;20426;-81
2021/08/13 09:27:59;;;;;;;18.77;11.02;;;;;;;;;;5035645;28;20120;-80
2021/08/13 09:30:25;;;;;;;3.53;1.75;;;;;;;;;;5053743;28;20079;-79
2021/08/13 09:33:00;;;;;;;24.65;21.02;;;;;;;;;;5053272;28;20416;-79
2021/08/13 09:35:32;;;;;;;6.55;1.50;;;;;;;;;;5053593;28;20040;-79
2021/08/13 09:37:57;;;;;;;49.85;44.40;;;;;;;;;;5053588;28;20064;-81
2021/08/13 09:40:23;;;;;;;5.10;1.55;;;;;;;;;;5053321;28;20482;-80
2021/08/13 09:42:49;;;;;;;4.32;1.58;;;;;;;;;;5053467;28;20074;-80
2021/08/13 09:45:14;;;;;;;9.80;1.70;;;;;;;;;;5053151;28;20486;-80
2021/08/13 09:47:41;;;;;;;5.93;1.70;;;;;;;;;;5053605;28;20025;-80
2021/08/13 09:50:07;;;;;;;11.00;1.85;;;;;;;;;;5054094;28;20029;-79
2021/08/13 09:52:33;;;;;;;6.38;1.50;;;;;;;;;;5053025;28;20120;-80
2021/08/13 09:55:11;;;;;;;2.65;1.38;;;;;;;;;;5053212;28;20024;-80
2021/08/13 09:57:47;;;;;;;1.98;1.33;;;;;;;;;;5053101;28;20033;-79
2021/08/13 10:00:14;;;;;;;6.30;1.85;;;;;;;;;;5052792;28;20074;-80
2021/08/13 10:02:40;;;;;;;3.97;1.33;;;;;;;;;;5052806;28;20044;-79
2021/08/13 10:05:15;;;;;;;6.20;1.45;;;;;;;;;;5053096;28;20056;-78
2021/08/13 10:07:54;;;;;;;4.07;1.45;;;;;;;;;;5056179;28;20098;-83
2021/08/13 10:10:24;;;;;;;4.78;1.40;;;;;;;;;;5054134;28;20104;-83
2021/08/13 10:12:49;;;;;;;6.20;1.50;;;;;;;;;;5036567;28;20021;-83
2021/08/13 10:15:28;;;;;;;5.47;1.40;;;;;;;;;;5054198;28;20028;-82
2021/08/13 10:17:57;;;;;;;8.30;2.00;;;;;;;;;;5054426;28;20115;-85
2021/08/13 10:20:26;;;;;;;7.72;1.77;;;;;;;;;;5054718;28;20054;-85
2021/08/13 10:22:52;;;;;;;4.28;1.50;;;;;;;;;;5065797;28;20055;-85
2021/08/13 10:25:19;;;;;;;4.65;1.17;;;;;;;;;;5067833;28;20036;-82
2021/08/13 10:27:45;;;;;;;2.85;1.08;;;;;;;;;;5058218;28;20447;-81
2021/08/13 10:30:11;;;;;;;4.10;1.27;;;;;;;;;;5052834;28;20036;-82
2021/08/13 10:32:37;;;;;;;3.33;1.30;;;;;;;;;;5053066;28;20033;-82
2021/08/13 10:35:02;;;;;;;4.78;1.30;;;;;;;;;;5053081;28;20039;-82
2021/08/13 10:37:28;;;;;;;5.85;1.10;;;;;;;;;;5053921;28;20037;-82
2021/08/13 10:39:54;;;;;;;3.40;0.98;;;;;;;;;;5035162;28;20419;-82
2021/08/13 10:42:22;;;;;;;13.45;1.63;;;;;;;;;;5052441;28;20134;-82
2021/08/13 10:44:53;;;;;;;4.22;1.15;;;;;;;;;;5054112;28;20070;-82
2021/08/13 10:47:21;;;;;;;13.52;1.90;;;;;;;;;;5052148;28;20116;-82
2021/08/13 10:49:48;;;;;;;6.97;1.10;;;;;;;;;;5052918;28;20469;-82
2021/08/13 10:52:15;;;;;;;4.13;1.35;;;;;;;;;;5052574;28;20020;-82
2021/08/13 10:54:45;;;;;;;4.40;1.30;;;;;;;;;;5053121;28;20029;-81
2021/08/13 10:57:13;;;;;;;5.97;1.63;;;;;;;;;;5054153;28;20051;-83
2021/08/13 10:59:39;;;;;;;71.88;54.60;;;;;;;;;;5052363;28;20031;-83
2021/08/13 11:02:09;;;;;;;21.52;11.65;;;;;;;;;;5051748;28;20032;-82
2021/08/13 11:04:41;;;;;;;13.13;3.00;;;;;;;;;;5052523;28;20340;-82
2021/08/13 11:07:07;;;;;;;12.52;2.53;;;;;;;;;;5052124;28;20041;-82
2021/08/13 11:09:36;;;;;;;21.02;4.63;;;;;;;;;;5052466;28;20033;-82
2021/08/13 11:12:02;;;;;;;47.30;9.05;;;;;;;;;;5052612;28;20025;-82
2021/08/13 11:14:29;;;;;;;2.97;0.98;;;;;;;;;;5052742;28;20170;-83
2021/08/13 11:16:55;;;;;;;1.48;1.00;;;;;;;;;;5067280;28;20012;-83
2021/08/13 11:19:21;;;;;;;2.95;1.17;;;;;;;;;;5072393;28;20029;-83
2021/08/13 11:21:51;;;;;;;4.88;0.90;;;;;;;;;;5035414;28;20063;-82
2021/08/13 11:24:18;;;;;;;3.03;1.27;;;;;;;;;;5053429;28;20025;-82
2021/08/13 11:26:53;;;;;;;4.63;1.55;;;;;;;;;;5053150;28;20116;-82
2021/08/13 11:29:27;;;;;;;6.78;1.00;;;;;;;;;;5052245;28;20111;-82
2021/08/13 11:31:53;;;;;;;10.57;1.50;;;;;;;;;;5052155;28;20131;-83
2021/08/13 11:34:37;;;;;;;5.32;1.17;;;;;;;;;;5052194;28;20037;-83
2021/08/13 11:37:02;;;;;;;19.95;3.30;;;;;;;;;;5051744;28;20116;-83
2021/08/13 11:39:35;;;;;;;3.45;1.20;;;;;;;;;;5051891;28;20127;-83
2021/08/13 11:42:05;;;;;;;5.72;1.13;;;;;;;;;;5053151;28;20025;-82
2021/08/13 11:44:31;;;;;;;1.10;0.93;;;;;;;;;;5052371;28;20075;-82
2021/08/13 11:46:57;;;;;;;8.35;1.38;;;;;;;;;;5052726;28;20033;-83
2021/08/13 11:49:23;;;;;;;9.18;1.40;;;;;;;;;;5052800;28;20051;-82
2021/08/13 11:51:52;;;;;;;6.03;1.42;;;;;;;;;;5052092;28;20422;-82
2021/08/13 11:54:24;;;;;;;2.22;1.20;;;;;;;;;;5051846;28;20082;-82
2021/08/13 11:56:50;;;;;;;6.18;0.90;;;;;;;;;;5052085;28;20045;-81
2021/08/13 11:59:15;;;;;;;13.02;1.30;;;;;;;;;;5054411;28;20143;-83
2021/08/13 12:01:50;;;;;;;2.50;0.80;;;;;;;;;;5054457;28;20033;-81
2021/08/13 12:04:19;;;;;;;4.85;0.98;;;;;;;;;;5057381;28;20506;-82
2021/08/13 12:07:03;;;;;;;3.38;1.00;;;;;;;;;;5057104;28;20025;-80
2021/08/13 12:09:30;;;;;;;2.95;0.98;;;;;;;;;;5058100;28;20037;-81
2021/08/13 12:11:56;;;;;;;8.25;1.38;;;;;;;;;;5058107;28;20028;-83
2021/08/13 12:14:22;;;;;;;5.32;1.30;;;;;;;;;;5057812;28;20025;-82
2021/08/13 12:16:51;;;;;;;36.40;26.58;;;;;;;;;;5057524;28;20132;-82
2021/08/13 12:19:17;;;;;;;62.95;31.15;;;;;;;;;;5039297;28;20029;-81
2021/08/13 12:22:02;;;;;;;3.60;1.40;;;;;;;;;;5057709;28;20057;-82
2021/08/13 12:24:34;;;;;;;3.85;1.15;;;;;;;;;;5057629;28;20410;-81
2021/08/13 12:27:01;;;;;;;3.95;1.20;;;;;;;;;;5057976;28;20028;-81
2021/08/13 12:29:30;;;;;;;6.07;1.42;;;;;;;;;;5057006;28;20063;-82
2021/08/13 12:31:56;;;;;;;13.63;2.22;;;;;;;;;;5056955;28;20025;-81
2021/08/13 12:34:22;;;;;;;3.08;1.38;;;;;;;;;;5057198;28;20082;-81
2021/08/13 12:37:00;;;;;;;5.15;1.30;;;;;;;;;;5056749;28;20037;-81
2021/08/13 12:39:26;;;;;;;45.80;32.97;;;;;;;;;;5056188;28;20029;-82
2021/08/13 12:41:51;;;;;;;45.88;32.95;;;;;;;;;;5055927;28;20055;-82
2021/08/13 12:44:17;;;;;;;6.75;1.45;;;;;;;;;;5056475;28;20032;-80
2021/08/13 12:46:43;;;;;;;10.88;1.88;;;;;;;;;;5055875;28;20033;-81
2021/08/13 12:49:09;;;;;;;19.42;7.22;;;;;;;;;;5056066;28;20484;-81
2021/08/13 12:51:34;;;;;;;3.90;1.27;;;;;;;;;;5056450;28;20091;-82
2021/08/13 12:54:01;;;;;;;4.35;1.55;;;;;;;;;;5038056;28;20471;-83
2021/08/13 12:56:27;;;;;;;23.60;16.25;;;;;;;;;;5056277;28;20462;-82
2021/08/13 12:58:52;;;;;;;9.27;1.40;;;;;;;;;;5056669;28;20029;-81
2021/08/13 13:01:23;;;;;;;6.60;1.42;;;;;;;;;;5056724;28;20025;-81
2021/08/13 13:04:07;;;;;;;26.63;20.30;;;;;;;;;;5056028;28;20025;-81
2021/08/13 13:06:33;;;;;;;34.20;26.60;;;;;;;;;;5055844;28;20032;-82
2021/08/13 13:08:58;;;;;;;3.25;1.25;;;;;;;;;;5055208;28;20048;-81
2021/08/13 13:11:26;;;;;;;36.97;25.17;;;;;;;;;;5056602;28;20029;-82
2021/08/13 13:13:53;;;;;;;146.60;108.80;;;;;;;;;;5037434;28;20033;-81
2021/08/13 13:16:19;;;;;;;4.40;2.00;;;;;;;;;;5054452;28;20040;-79
2021/08/13 13:18:44;;;;;;;69.88;15.32;;;;;;;;;;5054091;28;20044;-79
2021/08/13 13:21:20;;;;;;;6.15;1.50;;;;;;;;;;5053864;28;20025;-79
2021/08/13 13:23:46;;;;;;;;;;;;;;;;;;5054251;28;20509;-79
2021/08/13 13:26:12;;;;;;;2.83;1.40;;;;;;;;;;5053949;28;19948;-79
2021/08/13 13:28:37;;;;;;;12.30;2.47;;;;;;;;;;5053675;28;20160;-79
2021/08/13 13:31:24;;;;;;;5.60;1.58;;;;;;;;;;5053844;28;20066;-79
2021/08/13 13:34:03;;;;;;;5.80;1.67;;;;;;;;;;5053808;28;20143;-78
2021/08/13 13:36:29;;;;;;;5.80;1.48;;;;;;;;;;5053511;28;20040;-79
2021/08/13 13:38:56;;;;;;;4.65;1.27;;;;;;;;;;5053815;28;20472;-79
2021/08/13 13:41:22;;;;;;;22.05;6.50;;;;;;;;;;5035899;28;20033;-79
2021/08/13 13:43:47;;;;;;;4.75;2.08;;;;;;;;;;5053946;28;20048;-79
2021/08/13 13:46:13;;;;;;;3.88;1.17;;;;;;;;;;5053930;28;20028;-79
2021/08/13 13:48:40;;;;;;;38.75;4.93;;;;;;;;;;5053444;28;20131;-78
2021/08/13 13:51:06;;;;;;;5.07;1.27;;;;;;;;;;5053433;28;20025;-79
2021/08/13 13:53:31;;;;;;;5.57;1.33;;;;;;;;;;5053240;28;20028;-79
2021/08/13 13:55:57;;;;;;;5.35;1.75;;;;;;;;;;5056846;28;20033;-79
2021/08/13 13:58:22;;;;;;;7.63;1.98;;;;;;;;;;5062535;28;20434;-78
2021/08/13 14:00:48;;;;;;;2.75;1.20;;;;;;;;;;5060769;28;20021;-80
2021/08/13 14:03:13;;;;;;;4.38;1.65;;;;;;;;;;5054079;28;20033;-79
2021/08/13 14:05:39;;;;;;;6.10;1.42;;;;;;;;;;5052527;28;20151;-80
2021/08/13 14:08:05;;;;;;;2.78;1.70;;;;;;;;;;5052577;28;20064;-80
2021/08/13 14:10:31;;;;;;;4.05;1.45;;;;;;;;;;5053150;28;20021;-79
2021/08/13 14:13:04;;;;;;;3.22;1.50;;;;;;;;;;5052819;28;20044;-79
2021/08/13 14:15:31;;;;;;;7.80;1.40;;;;;;;;;;5034932;28;20052;-79
2021/08/13 14:17:57;;;;;;;7.47;1.45;;;;;;;;;;5052623;28;20115;-79
2021/08/13 14:20:22;;;;;;;5.80;1.23;;;;;;;;;;5053041;28;20049;-79
2021/08/13 14:22:48;;;;;;;8.85;1.65;;;;;;;;;;5052992;28;20025;-78
2021/08/13 14:25:15;;;;;;;4.53;1.50;;;;;;;;;;5052899;28;20028;-79
2021/08/13 14:27:40;;;;;;;15.30;2.08;;;;;;;;;;5052793;28;20032;-79
2021/08/13 14:30:07;;;;;;;8.45;1.70;;;;;;;;;;5053658;28;20025;-80
2021/08/13 14:32:32;;;;;;;14.95;2.35;;;;;;;;;;5034971;28;20025;-79